sensor_id;sensor_type;location;lat;lon;timestamp;temperature;humidity
61255;DHT22;47128;47.530;8.584;2022-08-01T00:01:53;20.50;94.60
61255;DHT22;47128;47.530;8.584;2022-08-01T00:04:18;20.40;94.70
61255;DHT22;47128;47.530;8.584;2022-08-01T00:06:44;20.40;95.00
61255;DHT22;47128;47.530;8.584;2022-08-01T00:09:10;20.40;95.10
61255;DHT22;47128;47.530;8.584;2022-08-01T00:11:35;20.40;95.20
61255;DHT22;47128;47.530;8.584;2022-08-01T00:14:01;20.30;95.20
61255;DHT22;47128;47.530;8.584;2022-08-01T00:16:27;20.20;95.20
61255;DHT22;47128;47.530;8.584;2022-08-01T00:18:52;20.10;95.50
61255;DHT22;47128;47.530;8.584;2022-08-01T00:21:18;20.10;95.40
61255;DHT22;47128;47.530;8.584;2022-08-01T00:23:44;20.00;95.40
61255;DHT22;47128;47.530;8.584;2022-08-01T00:26:12;20.00;95.70
61255;DHT22;47128;47.530;8.584;2022-08-01T00:28:38;20.00;95.60
61255;DHT22;47128;47.530;8.584;2022-08-01T00:31:03;20.00;95.70
61255;DHT22;47128;47.530;8.584;2022-08-01T00:33:29;19.80;95.70
61255;DHT22;47128;47.530;8.584;2022-08-01T00:35:55;19.90;95.80
61255;DHT22;47128;47.530;8.584;2022-08-01T00:38:21;19.80;96.20
61255;DHT22;47128;47.530;8.584;2022-08-01T00:40:46;19.90;96.20
61255;DHT22;47128;47.530;8.584;2022-08-01T00:43:12;19.90;96.10
61255;DHT22;47128;47.530;8.584;2022-08-01T00:45:38;19.90;96.00
61255;DHT22;47128;47.530;8.584;2022-08-01T00:48:03;19.90;96.00
61255;DHT22;47128;47.530;8.584;2022-08-01T00:50:29;19.90;96.10
61255;DHT22;47128;47.530;8.584;2022-08-01T00:52:55;20.00;96.00
61255;DHT22;47128;47.530;8.584;2022-08-01T00:55:22;19.90;96.10
61255;DHT22;47128;47.530;8.584;2022-08-01T00:57:48;19.90;96.30
61255;DHT22;47128;47.530;8.584;2022-08-01T01:00:14;19.80;96.30
61255;DHT22;47128;47.530;8.584;2022-08-01T01:02:40;19.70;96.00
61255;DHT22;47128;47.530;8.584;2022-08-01T01:05:06;19.70;96.40
61255;DHT22;47128;47.530;8.584;2022-08-01T01:07:54;19.70;96.30
61255;DHT22;47128;47.530;8.584;2022-08-01T01:10:54;19.90;96.40
61255;DHT22;47128;47.530;8.584;2022-08-01T01:13:32;19.90;96.30
61255;DHT22;47128;47.530;8.584;2022-08-01T01:16:06;19.80;96.60
61255;DHT22;47128;47.530;8.584;2022-08-01T01:18:45;19.80;96.80
61255;DHT22;47128;47.530;8.584;2022-08-01T01:24:17;19.80;96.70
61255;DHT22;47128;47.530;8.584;2022-08-01T01:29:53;19.80;97.00
61255;DHT22;47128;47.530;8.584;2022-08-01T01:34:54;19.70;96.80
61255;DHT22;47128;47.530;8.584;2022-08-01T01:37:23;19.60;97.00
61255;DHT22;47128;47.530;8.584;2022-08-01T01:39:51;19.60;97.10
61255;DHT22;47128;47.530;8.584;2022-08-01T01:42:19;19.60;97.00
61255;DHT22;47128;47.530;8.584;2022-08-01T01:44:48;19.50;97.10
61255;DHT22;47128;47.530;8.584;2022-08-01T01:47:16;19.50;97.20
61255;DHT22;47128;47.530;8.584;2022-08-01T01:49:44;19.60;96.90
61255;DHT22;47128;47.530;8.584;2022-08-01T01:52:13;19.60;97.00
61255;DHT22;47128;47.530;8.584;2022-08-01T01:54:44;19.50;97.00
61255;DHT22;47128;47.530;8.584;2022-08-01T01:57:12;19.60;97.10
61255;DHT22;47128;47.530;8.584;2022-08-01T01:59:41;19.50;96.90
61255;DHT22;47128;47.530;8.584;2022-08-01T02:02:08;19.40;96.90
61255;DHT22;47128;47.530;8.584;2022-08-01T02:04:40;19.30;97.10
61255;DHT22;47128;47.530;8.584;2022-08-01T02:07:07;19.30;97.20
61255;DHT22;47128;47.530;8.584;2022-08-01T02:09:35;19.30;97.00
61255;DHT22;47128;47.530;8.584;2022-08-01T02:12:03;19.40;97.00
61255;DHT22;47128;47.530;8.584;2022-08-01T02:14:33;19.50;97.00
61255;DHT22;47128;47.530;8.584;2022-08-01T02:17:00;19.50;97.30
61255;DHT22;47128;47.530;8.584;2022-08-01T02:19:29;19.60;97.10
61255;DHT22;47128;47.530;8.584;2022-08-01T02:22:09;19.50;97.30
61255;DHT22;47128;47.530;8.584;2022-08-01T02:27:34;19.50;97.20
61255;DHT22;47128;47.530;8.584;2022-08-01T02:30:06;19.50;97.10
61255;DHT22;47128;47.530;8.584;2022-08-01T02:32:54;19.50;97.10
61255;DHT22;47128;47.530;8.584;2022-08-01T02:35:26;19.40;97.20
61255;DHT22;47128;47.530;8.584;2022-08-01T02:37:54;19.40;97.10
61255;DHT22;47128;47.530;8.584;2022-08-01T02:40:20;19.50;97.20
61255;DHT22;47128;47.530;8.584;2022-08-01T02:42:50;19.40;96.90
61255;DHT22;47128;47.530;8.584;2022-08-01T02:45:18;19.40;97.00
61255;DHT22;47128;47.530;8.584;2022-08-01T02:47:44;19.40;97.40
61255;DHT22;47128;47.530;8.584;2022-08-01T02:50:12;19.50;97.20
61255;DHT22;47128;47.530;8.584;2022-08-01T02:52:40;19.40;97.50
61255;DHT22;47128;47.530;8.584;2022-08-01T02:55:07;19.40;97.40
61255;DHT22;47128;47.530;8.584;2022-08-01T02:57:34;19.40;97.50
61255;DHT22;47128;47.530;8.584;2022-08-01T03:00:01;19.50;97.50
61255;DHT22;47128;47.530;8.584;2022-08-01T03:02:27;19.50;97.60
61255;DHT22;47128;47.530;8.584;2022-08-01T03:04:55;19.40;97.60
61255;DHT22;47128;47.530;8.584;2022-08-01T03:07:21;19.40;97.40
61255;DHT22;47128;47.530;8.584;2022-08-01T03:09:49;19.40;97.50
61255;DHT22;47128;47.530;8.584;2022-08-01T03:12:27;19.40;97.50
61255;DHT22;47128;47.530;8.584;2022-08-01T03:14:55;19.40;97.60
61255;DHT22;47128;47.530;8.584;2022-08-01T03:17:26;19.40;97.80
61255;DHT22;47128;47.530;8.584;2022-08-01T03:19:54;19.40;97.80
61255;DHT22;47128;47.530;8.584;2022-08-01T03:22:22;19.40;97.70
61255;DHT22;47128;47.530;8.584;2022-08-01T03:24:52;19.30;97.70
61255;DHT22;47128;47.530;8.584;2022-08-01T03:27:22;19.30;97.70
61255;DHT22;47128;47.530;8.584;2022-08-01T03:29:50;19.30;98.00
61255;DHT22;47128;47.530;8.584;2022-08-01T03:32:18;19.20;98.00
61255;DHT22;47128;47.530;8.584;2022-08-01T03:34:45;19.10;98.10
61255;DHT22;47128;47.530;8.584;2022-08-01T03:39:50;19.20;98.00
61255;DHT22;47128;47.530;8.584;2022-08-01T03:42:24;19.00;98.00
61255;DHT22;47128;47.530;8.584;2022-08-01T03:44:56;19.00;98.00
61255;DHT22;47128;47.530;8.584;2022-08-01T03:47:28;18.90;98.20
61255;DHT22;47128;47.530;8.584;2022-08-01T03:49:56;18.90;98.50
61255;DHT22;47128;47.530;8.584;2022-08-01T03:52:24;18.90;98.60
61255;DHT22;47128;47.530;8.584;2022-08-01T03:54:52;18.80;98.70
61255;DHT22;47128;47.530;8.584;2022-08-01T03:57:19;18.60;98.90
61255;DHT22;47128;47.530;8.584;2022-08-01T03:59:46;18.60;99.10
61255;DHT22;47128;47.530;8.584;2022-08-01T04:02:12;18.60;99.00
61255;DHT22;47128;47.530;8.584;2022-08-01T04:04:40;18.60;99.00
61255;DHT22;47128;47.530;8.584;2022-08-01T04:07:24;18.70;99.00
61255;DHT22;47128;47.530;8.584;2022-08-01T04:09:50;18.60;98.90
61255;DHT22;47128;47.530;8.584;2022-08-01T04:12:17;18.60;99.10
61255;DHT22;47128;47.530;8.584;2022-08-01T04:14:42;18.60;98.90
61255;DHT22;47128;47.530;8.584;2022-08-01T04:17:08;18.70;98.90
61255;DHT22;47128;47.530;8.584;2022-08-01T04:19:34;18.60;98.90
61255;DHT22;47128;47.530;8.584;2022-08-01T04:21:59;18.50;98.90
61255;DHT22;47128;47.530;8.584;2022-08-01T04:24:27;18.60;98.80
61255;DHT22;47128;47.530;8.584;2022-08-01T04:26:56;18.50;98.70
61255;DHT22;47128;47.530;8.584;2022-08-01T04:29:24;18.60;98.40
61255;DHT22;47128;47.530;8.584;2022-08-01T04:31:50;18.60;98.50
61255;DHT22;47128;47.530;8.584;2022-08-01T04:34:21;18.80;98.20
61255;DHT22;47128;47.530;8.584;2022-08-01T04:36:48;18.90;98.10
61255;DHT22;47128;47.530;8.584;2022-08-01T04:39:16;18.90;98.10
61255;DHT22;47128;47.530;8.584;2022-08-01T04:41:44;18.80;98.50
61255;DHT22;47128;47.530;8.584;2022-08-01T04:44:13;18.80;98.40
61255;DHT22;47128;47.530;8.584;2022-08-01T04:46:39;18.70;98.50
61255;DHT22;47128;47.530;8.584;2022-08-01T04:49:06;18.70;98.60
61255;DHT22;47128;47.530;8.584;2022-08-01T04:51:34;18.70;98.80
61255;DHT22;47128;47.530;8.584;2022-08-01T04:54:00;18.90;98.70
61255;DHT22;47128;47.530;8.584;2022-08-01T04:56:26;18.70;98.70
61255;DHT22;47128;47.530;8.584;2022-08-01T04:58:52;18.70;99.00
61255;DHT22;47128;47.530;8.584;2022-08-01T05:01:38;18.70;99.10
61255;DHT22;47128;47.530;8.584;2022-08-01T05:04:04;18.80;99.00
61255;DHT22;47128;47.530;8.584;2022-08-01T05:06:29;19.00;98.90
61255;DHT22;47128;47.530;8.584;2022-08-01T05:08:55;18.80;98.80
61255;DHT22;47128;47.530;8.584;2022-08-01T05:11:21;18.80;98.80
61255;DHT22;47128;47.530;8.584;2022-08-01T05:13:47;18.90;98.90
61255;DHT22;47128;47.530;8.584;2022-08-01T05:16:13;18.80;98.60
61255;DHT22;47128;47.530;8.584;2022-08-01T05:18:39;19.00;99.00
61255;DHT22;47128;47.530;8.584;2022-08-01T05:21:04;19.00;98.60
61255;DHT22;47128;47.530;8.584;2022-08-01T05:23:30;19.20;98.40
61255;DHT22;47128;47.530;8.584;2022-08-01T05:25:55;19.20;98.20
61255;DHT22;47128;47.530;8.584;2022-08-01T05:28:21;19.30;98.10
61255;DHT22;47128;47.530;8.584;2022-08-01T05:30:47;19.30;97.80
61255;DHT22;47128;47.530;8.584;2022-08-01T05:33:12;19.40;97.70
61255;DHT22;47128;47.530;8.584;2022-08-01T05:35:38;19.70;97.60
61255;DHT22;47128;47.530;8.584;2022-08-01T05:38:03;20.00;97.10
61255;DHT22;47128;47.530;8.584;2022-08-01T05:40:29;21.00;95.60
61255;DHT22;47128;47.530;8.584;2022-08-01T05:42:55;22.10;93.80
61255;DHT22;47128;47.530;8.584;2022-08-01T05:45:20;22.80;92.40
61255;DHT22;47128;47.530;8.584;2022-08-01T05:47:46;23.80;90.50
61255;DHT22;47128;47.530;8.584;2022-08-01T05:50:11;24.50;88.70
61255;DHT22;47128;47.530;8.584;2022-08-01T05:52:37;25.10;86.20
61255;DHT22;47128;47.530;8.584;2022-08-01T05:55:03;24.80;85.80
61255;DHT22;47128;47.530;8.584;2022-08-01T05:57:30;23.90;88.20
61255;DHT22;47128;47.530;8.584;2022-08-01T05:59:55;23.50;90.00
61255;DHT22;47128;47.530;8.584;2022-08-01T06:02:21;23.50;89.80
61255;DHT22;47128;47.530;8.584;2022-08-01T06:04:46;23.80;89.20
61255;DHT22;47128;47.530;8.584;2022-08-01T06:07:12;25.30;86.00
61255;DHT22;47128;47.530;8.584;2022-08-01T06:09:38;26.50;82.40
61255;DHT22;47128;47.530;8.584;2022-08-01T06:12:03;26.50;81.10
61255;DHT22;47128;47.530;8.584;2022-08-01T06:14:29;27.40;80.70
61255;DHT22;47128;47.530;8.584;2022-08-01T06:16:55;28.00;79.70
61255;DHT22;47128;47.530;8.584;2022-08-01T06:19:21;28.30;77.00
61255;DHT22;47128;47.530;8.584;2022-08-01T06:21:46;28.20;78.40
61255;DHT22;47128;47.530;8.584;2022-08-01T06:24:12;28.40;75.20
61255;DHT22;47128;47.530;8.584;2022-08-01T06:26:37;28.40;75.10
61255;DHT22;47128;47.530;8.584;2022-08-01T06:29:03;28.70;73.90
61255;DHT22;47128;47.530;8.584;2022-08-01T06:31:29;29.70;72.90
61255;DHT22;47128;47.530;8.584;2022-08-01T06:33:56;29.90;70.70
61255;DHT22;47128;47.530;8.584;2022-08-01T06:36:22;30.50;68.40
61255;DHT22;47128;47.530;8.584;2022-08-01T06:38:50;31.20;67.70
61255;DHT22;47128;47.530;8.584;2022-08-01T06:41:16;31.60;67.00
61255;DHT22;47128;47.530;8.584;2022-08-01T06:43:41;32.20;64.10
61255;DHT22;47128;47.530;8.584;2022-08-01T06:46:07;32.10;63.00
61255;DHT22;47128;47.530;8.584;2022-08-01T06:48:33;32.30;62.80
61255;DHT22;47128;47.530;8.584;2022-08-01T06:51:00;32.50;62.50
61255;DHT22;47128;47.530;8.584;2022-08-01T06:53:37;33.10;61.20
61255;DHT22;47128;47.530;8.584;2022-08-01T06:56:03;33.50;60.20
61255;DHT22;47128;47.530;8.584;2022-08-01T06:58:29;34.30;59.50
61255;DHT22;47128;47.530;8.584;2022-08-01T07:00:55;34.60;58.40
61255;DHT22;47128;47.530;8.584;2022-08-01T07:03:20;34.50;57.10
61255;DHT22;47128;47.530;8.584;2022-08-01T07:05:46;34.30;56.90
61255;DHT22;47128;47.530;8.584;2022-08-01T07:08:11;34.90;56.60
61255;DHT22;47128;47.530;8.584;2022-08-01T07:10:37;33.50;57.00
61255;DHT22;47128;47.530;8.584;2022-08-01T07:13:03;32.10;58.30
61255;DHT22;47128;47.530;8.584;2022-08-01T07:15:29;31.60;60.40
61255;DHT22;47128;47.530;8.584;2022-08-01T07:17:55;31.70;60.80
61255;DHT22;47128;47.530;8.584;2022-08-01T07:20:22;31.70;61.50
61255;DHT22;47128;47.530;8.584;2022-08-01T07:22:48;32.20;60.00
61255;DHT22;47128;47.530;8.584;2022-08-01T07:25:13;32.30;58.20
61255;DHT22;47128;47.530;8.584;2022-08-01T07:30:05;31.80;57.70
61255;DHT22;47128;47.530;8.584;2022-08-01T07:32:31;31.60;58.60
61255;DHT22;47128;47.530;8.584;2022-08-01T07:34:57;31.00;59.80
61255;DHT22;47128;47.530;8.584;2022-08-01T07:37:23;30.60;59.90
61255;DHT22;47128;47.530;8.584;2022-08-01T07:39:49;30.20;60.50
61255;DHT22;47128;47.530;8.584;2022-08-01T07:42:15;30.00;60.70
61255;DHT22;47128;47.530;8.584;2022-08-01T07:44:41;29.90;59.30
61255;DHT22;47128;47.530;8.584;2022-08-01T07:47:06;29.60;59.80
61255;DHT22;47128;47.530;8.584;2022-08-01T07:49:33;29.60;60.20
61255;DHT22;47128;47.530;8.584;2022-08-01T07:51:58;29.60;59.90
61255;DHT22;47128;47.530;8.584;2022-08-01T07:54:24;29.80;59.20
61255;DHT22;47128;47.530;8.584;2022-08-01T07:56:51;29.40;59.60
61255;DHT22;47128;47.530;8.584;2022-08-01T07:59:16;29.40;59.60
61255;DHT22;47128;47.530;8.584;2022-08-01T08:01:48;29.20;59.70
61255;DHT22;47128;47.530;8.584;2022-08-01T08:04:14;29.10;59.90
61255;DHT22;47128;47.530;8.584;2022-08-01T08:06:40;29.20;59.90
61255;DHT22;47128;47.530;8.584;2022-08-01T08:09:06;29.40;59.80
61255;DHT22;47128;47.530;8.584;2022-08-01T08:11:32;29.40;59.90
61255;DHT22;47128;47.530;8.584;2022-08-01T08:13:57;29.50;59.90
61255;DHT22;47128;47.530;8.584;2022-08-01T08:16:23;29.60;59.90
61255;DHT22;47128;47.530;8.584;2022-08-01T08:18:49;29.40;59.60
61255;DHT22;47128;47.530;8.584;2022-08-01T08:21:14;29.50;60.30
61255;DHT22;47128;47.530;8.584;2022-08-01T08:23:40;29.40;59.80
61255;DHT22;47128;47.530;8.584;2022-08-01T08:26:24;29.20;59.70
61255;DHT22;47128;47.530;8.584;2022-08-01T08:28:50;29.30;60.20
61255;DHT22;47128;47.530;8.584;2022-08-01T08:31:16;29.50;60.40
61255;DHT22;47128;47.530;8.584;2022-08-01T08:33:41;29.60;59.60
61255;DHT22;47128;47.530;8.584;2022-08-01T08:36:07;29.60;59.70
61255;DHT22;47128;47.530;8.584;2022-08-01T08:38:33;29.60;59.50
61255;DHT22;47128;47.530;8.584;2022-08-01T08:40:59;29.60;59.80
61255;DHT22;47128;47.530;8.584;2022-08-01T08:43:25;29.60;59.50
61255;DHT22;47128;47.530;8.584;2022-08-01T08:45:52;29.50;59.50
61255;DHT22;47128;47.530;8.584;2022-08-01T08:48:17;29.70;59.20
61255;DHT22;47128;47.530;8.584;2022-08-01T08:50:44;29.70;59.00
61255;DHT22;47128;47.530;8.584;2022-08-01T08:53:12;29.80;59.00
61255;DHT22;47128;47.530;8.584;2022-08-01T08:55:39;29.80;59.20
61255;DHT22;47128;47.530;8.584;2022-08-01T08:58:13;30.00;59.70
61255;DHT22;47128;47.530;8.584;2022-08-01T09:00:40;30.10;58.60
61255;DHT22;47128;47.530;8.584;2022-08-01T09:03:06;30.20;58.90
61255;DHT22;47128;47.530;8.584;2022-08-01T09:05:34;30.00;58.80
61255;DHT22;47128;47.530;8.584;2022-08-01T09:08:00;30.00;59.20
61255;DHT22;47128;47.530;8.584;2022-08-01T09:10:25;30.10;59.00
61255;DHT22;47128;47.530;8.584;2022-08-01T09:13:09;30.20;58.60
61255;DHT22;47128;47.530;8.584;2022-08-01T09:15:49;30.50;58.90
61255;DHT22;47128;47.530;8.584;2022-08-01T09:18:42;30.70;58.20
61255;DHT22;47128;47.530;8.584;2022-08-01T09:21:17;30.80;58.10
61255;DHT22;47128;47.530;8.584;2022-08-01T09:23:46;30.90;57.90
61255;DHT22;47128;47.530;8.584;2022-08-01T09:26:15;31.10;57.70
61255;DHT22;47128;47.530;8.584;2022-08-01T09:28:41;31.10;57.60
61255;DHT22;47128;47.530;8.584;2022-08-01T09:31:16;31.20;57.40
61255;DHT22;47128;47.530;8.584;2022-08-01T09:33:56;31.00;56.20
61255;DHT22;47128;47.530;8.584;2022-08-01T09:36:24;31.00;56.50
61255;DHT22;47128;47.530;8.584;2022-08-01T09:38:51;31.10;56.80
61255;DHT22;47128;47.530;8.584;2022-08-01T09:41:19;31.00;54.30
61255;DHT22;47128;47.530;8.584;2022-08-01T09:43:53;30.60;54.70
61255;DHT22;47128;47.530;8.584;2022-08-01T09:46:22;30.60;54.60
61255;DHT22;47128;47.530;8.584;2022-08-01T09:48:56;30.70;55.00
61255;DHT22;47128;47.530;8.584;2022-08-01T09:53:54;30.20;55.20
61255;DHT22;47128;47.530;8.584;2022-08-01T09:56:21;30.20;55.40
61255;DHT22;47128;47.530;8.584;2022-08-01T09:58:57;30.30;55.10
61255;DHT22;47128;47.530;8.584;2022-08-01T10:01:23;30.60;55.00
61255;DHT22;47128;47.530;8.584;2022-08-01T10:04:14;30.60;55.00
61255;DHT22;47128;47.530;8.584;2022-08-01T10:06:42;30.60;54.80
61255;DHT22;47128;47.530;8.584;2022-08-01T10:09:10;30.40;55.00
61255;DHT22;47128;47.530;8.584;2022-08-01T10:11:37;30.60;54.70
61255;DHT22;47128;47.530;8.584;2022-08-01T10:14:06;30.80;54.90
61255;DHT22;47128;47.530;8.584;2022-08-01T10:16:34;30.80;55.20
61255;DHT22;47128;47.530;8.584;2022-08-01T10:19:01;30.90;55.40
61255;DHT22;47128;47.530;8.584;2022-08-01T10:21:27;30.90;55.00
61255;DHT22;47128;47.530;8.584;2022-08-01T10:23:57;30.70;54.90
61255;DHT22;47128;47.530;8.584;2022-08-01T10:26:25;30.60;55.50
61255;DHT22;47128;47.530;8.584;2022-08-01T10:28:53;30.70;55.20
61255;DHT22;47128;47.530;8.584;2022-08-01T10:31:20;30.70;55.20
61255;DHT22;47128;47.530;8.584;2022-08-01T10:33:45;30.70;55.10
61255;DHT22;47128;47.530;8.584;2022-08-01T10:36:13;31.00;55.00
61255;DHT22;47128;47.530;8.584;2022-08-01T10:38:39;31.30;55.00
61255;DHT22;47128;47.530;8.584;2022-08-01T10:41:06;31.60;54.50
61255;DHT22;47128;47.530;8.584;2022-08-01T10:43:31;31.30;54.20
61255;DHT22;47128;47.530;8.584;2022-08-01T10:45:58;31.50;54.20
61255;DHT22;47128;47.530;8.584;2022-08-01T10:48:53;31.90;53.30
61255;DHT22;47128;47.530;8.584;2022-08-01T10:51:20;32.30;53.10
61255;DHT22;47128;47.530;8.584;2022-08-01T10:53:51;33.00;52.60
61255;DHT22;47128;47.530;8.584;2022-08-01T10:56:18;33.30;52.50
61255;DHT22;47128;47.530;8.584;2022-08-01T10:58:46;33.40;51.50
61255;DHT22;47128;47.530;8.584;2022-08-01T11:03:39;32.30;51.20
61255;DHT22;47128;47.530;8.584;2022-08-01T11:06:16;31.90;51.40
61255;DHT22;47128;47.530;8.584;2022-08-01T11:08:43;31.90;51.80
61255;DHT22;47128;47.530;8.584;2022-08-01T11:11:15;31.90;51.20
61255;DHT22;47128;47.530;8.584;2022-08-01T11:14:00;32.10;51.60
61255;DHT22;47128;47.530;8.584;2022-08-01T11:16:40;32.30;51.50
61255;DHT22;47128;47.530;8.584;2022-08-01T11:19:07;32.00;51.70
61255;DHT22;47128;47.530;8.584;2022-08-01T11:32:49;31.40;50.40
61255;DHT22;47128;47.530;8.584;2022-08-01T11:35:17;31.60;50.10
61255;DHT22;47128;47.530;8.584;2022-08-01T11:37:42;32.00;49.20
61255;DHT22;47128;47.530;8.584;2022-08-01T11:42:40;32.00;50.10
61255;DHT22;47128;47.530;8.584;2022-08-01T11:45:07;31.90;50.60
61255;DHT22;47128;47.530;8.584;2022-08-01T11:48:01;32.00;50.10
61255;DHT22;47128;47.530;8.584;2022-08-01T11:50:42;32.30;50.20
61255;DHT22;47128;47.530;8.584;2022-08-01T11:53:08;32.40;49.50
61255;DHT22;47128;47.530;8.584;2022-08-01T11:55:34;32.50;49.70
61255;DHT22;47128;47.530;8.584;2022-08-01T11:58:07;32.40;48.70
61255;DHT22;47128;47.530;8.584;2022-08-01T12:00:33;32.30;48.30
61255;DHT22;47128;47.530;8.584;2022-08-01T12:03:01;32.20;48.50
61255;DHT22;47128;47.530;8.584;2022-08-01T12:05:28;32.20;48.40
61255;DHT22;47128;47.530;8.584;2022-08-01T12:07:54;32.20;48.00
61255;DHT22;47128;47.530;8.584;2022-08-01T12:10:22;32.30;47.50
61255;DHT22;47128;47.530;8.584;2022-08-01T12:12:49;32.50;47.80
61255;DHT22;47128;47.530;8.584;2022-08-01T12:15:16;32.70;46.90
61255;DHT22;47128;47.530;8.584;2022-08-01T12:17:44;32.90;46.70
61255;DHT22;47128;47.530;8.584;2022-08-01T12:20:13;32.90;48.10
61255;DHT22;47128;47.530;8.584;2022-08-01T12:22:39;33.20;46.80
61255;DHT22;47128;47.530;8.584;2022-08-01T12:25:12;33.20;47.00
61255;DHT22;47128;47.530;8.584;2022-08-01T12:27:44;33.40;47.20
61255;DHT22;47128;47.530;8.584;2022-08-01T12:30:22;33.60;46.30
61255;DHT22;47128;47.530;8.584;2022-08-01T12:32:49;33.70;46.70
61255;DHT22;47128;47.530;8.584;2022-08-01T12:35:26;33.90;46.10
61255;DHT22;47128;47.530;8.584;2022-08-01T12:38:01;34.10;45.90
61255;DHT22;47128;47.530;8.584;2022-08-01T12:40:33;34.10;46.40
61255;DHT22;47128;47.530;8.584;2022-08-01T12:43:07;33.80;46.20
61255;DHT22;47128;47.530;8.584;2022-08-01T12:45:39;33.80;46.90
61255;DHT22;47128;47.530;8.584;2022-08-01T12:48:14;33.70;46.40
61255;DHT22;47128;47.530;8.584;2022-08-01T12:50:43;33.80;50.80
61255;DHT22;47128;47.530;8.584;2022-08-01T12:53:10;34.10;50.60
61255;DHT22;47128;47.530;8.584;2022-08-01T12:55:53;34.10;45.70
61255;DHT22;47128;47.530;8.584;2022-08-01T12:58:20;34.20;45.70
61255;DHT22;47128;47.530;8.584;2022-08-01T13:00:48;34.30;45.80
61255;DHT22;47128;47.530;8.584;2022-08-01T13:03:19;34.20;45.70
61255;DHT22;47128;47.530;8.584;2022-08-01T13:05:50;34.20;45.60
61255;DHT22;47128;47.530;8.584;2022-08-01T13:08:19;34.40;45.50
61255;DHT22;47128;47.530;8.584;2022-08-01T13:10:46;34.20;45.30
61255;DHT22;47128;47.530;8.584;2022-08-01T13:13:14;34.00;45.30
61255;DHT22;47128;47.530;8.584;2022-08-01T13:15:41;33.80;44.70
61255;DHT22;47128;47.530;8.584;2022-08-01T13:18:29;33.90;44.90
61255;DHT22;47128;47.530;8.584;2022-08-01T13:21:16;34.10;43.70
61255;DHT22;47128;47.530;8.584;2022-08-01T13:24:06;34.20;43.20
61255;DHT22;47128;47.530;8.584;2022-08-01T13:26:47;34.10;42.50
61255;DHT22;47128;47.530;8.584;2022-08-01T13:29:21;34.10;42.00
61255;DHT22;47128;47.530;8.584;2022-08-01T13:31:48;33.90;42.00
61255;DHT22;47128;47.530;8.584;2022-08-01T13:34:15;34.00;42.40
61255;DHT22;47128;47.530;8.584;2022-08-01T13:36:41;33.80;42.90
61255;DHT22;47128;47.530;8.584;2022-08-01T13:39:07;33.80;42.70
61255;DHT22;47128;47.530;8.584;2022-08-01T13:41:51;33.60;42.80
61255;DHT22;47128;47.530;8.584;2022-08-01T13:44:17;33.60;42.00
61255;DHT22;47128;47.530;8.584;2022-08-01T13:46:43;33.50;42.70
61255;DHT22;47128;47.530;8.584;2022-08-01T13:49:10;33.50;42.50
61255;DHT22;47128;47.530;8.584;2022-08-01T13:51:37;33.40;42.70
61255;DHT22;47128;47.530;8.584;2022-08-01T13:54:03;33.70;42.60
61255;DHT22;47128;47.530;8.584;2022-08-01T13:56:29;34.10;42.10
61255;DHT22;47128;47.530;8.584;2022-08-01T13:58:56;34.00;41.60
61255;DHT22;47128;47.530;8.584;2022-08-01T14:01:22;33.70;42.00
61255;DHT22;47128;47.530;8.584;2022-08-01T14:03:49;33.80;41.30
61255;DHT22;47128;47.530;8.584;2022-08-01T14:06:15;34.00;41.40
61255;DHT22;47128;47.530;8.584;2022-08-01T14:08:42;33.90;41.90
61255;DHT22;47128;47.530;8.584;2022-08-01T14:11:08;33.90;41.50
61255;DHT22;47128;47.530;8.584;2022-08-01T14:13:33;33.60;41.30
61255;DHT22;47128;47.530;8.584;2022-08-01T14:15:59;33.80;41.60
61255;DHT22;47128;47.530;8.584;2022-08-01T14:18:25;33.80;41.90
61255;DHT22;47128;47.530;8.584;2022-08-01T14:20:51;33.90;41.50
61255;DHT22;47128;47.530;8.584;2022-08-01T14:23:17;34.10;41.60
61255;DHT22;47128;47.530;8.584;2022-08-01T14:25:43;34.00;41.60
61255;DHT22;47128;47.530;8.584;2022-08-01T14:28:08;34.10;41.70
61255;DHT22;47128;47.530;8.584;2022-08-01T14:30:34;34.00;41.50
61255;DHT22;47128;47.530;8.584;2022-08-01T14:33:00;34.10;42.00
61255;DHT22;47128;47.530;8.584;2022-08-01T14:35:25;34.10;42.00
61255;DHT22;47128;47.530;8.584;2022-08-01T14:37:51;34.30;41.90
61255;DHT22;47128;47.530;8.584;2022-08-01T14:40:17;34.10;41.70
61255;DHT22;47128;47.530;8.584;2022-08-01T14:42:43;34.10;42.10
61255;DHT22;47128;47.530;8.584;2022-08-01T14:45:13;34.10;42.20
61255;DHT22;47128;47.530;8.584;2022-08-01T14:47:41;34.30;42.60
61255;DHT22;47128;47.530;8.584;2022-08-01T14:50:09;33.80;42.30
61255;DHT22;47128;47.530;8.584;2022-08-01T14:52:36;33.80;43.40
61255;DHT22;47128;47.530;8.584;2022-08-01T14:55:03;33.80;43.20
61255;DHT22;47128;47.530;8.584;2022-08-01T14:57:29;33.50;43.10
61255;DHT22;47128;47.530;8.584;2022-08-01T14:59:55;33.50;43.10
61255;DHT22;47128;47.530;8.584;2022-08-01T15:02:20;33.20;43.00
61255;DHT22;47128;47.530;8.584;2022-08-01T15:04:47;33.00;43.30
61255;DHT22;47128;47.530;8.584;2022-08-01T15:07:14;33.00;43.20
61255;DHT22;47128;47.530;8.584;2022-08-01T15:09:40;33.20;43.30
61255;DHT22;47128;47.530;8.584;2022-08-01T15:12:06;33.10;43.60
61255;DHT22;47128;47.530;8.584;2022-08-01T15:14:32;33.00;43.80
61255;DHT22;47128;47.530;8.584;2022-08-01T15:17:14;32.80;44.00
61255;DHT22;47128;47.530;8.584;2022-08-01T15:19:39;32.70;44.60
61255;DHT22;47128;47.530;8.584;2022-08-01T15:22:05;33.00;44.40
61255;DHT22;47128;47.530;8.584;2022-08-01T15:24:31;33.20;43.90
61255;DHT22;47128;47.530;8.584;2022-08-01T15:26:56;33.40;43.90
61255;DHT22;47128;47.530;8.584;2022-08-01T15:29:22;33.30;44.00
61255;DHT22;47128;47.530;8.584;2022-08-01T15:31:48;33.30;44.30
61255;DHT22;47128;47.530;8.584;2022-08-01T15:34:14;33.20;44.00
61255;DHT22;47128;47.530;8.584;2022-08-01T15:36:39;33.10;44.20
61255;DHT22;47128;47.530;8.584;2022-08-01T15:39:05;33.10;44.20
61255;DHT22;47128;47.530;8.584;2022-08-01T15:41:31;33.00;44.10
61255;DHT22;47128;47.530;8.584;2022-08-01T15:43:56;33.20;44.20
61255;DHT22;47128;47.530;8.584;2022-08-01T15:46:22;33.30;44.10
61255;DHT22;47128;47.530;8.584;2022-08-01T15:48:48;33.30;44.20
61255;DHT22;47128;47.530;8.584;2022-08-01T15:51:14;33.20;44.40
61255;DHT22;47128;47.530;8.584;2022-08-01T15:53:39;33.50;44.30
61255;DHT22;47128;47.530;8.584;2022-08-01T15:56:05;33.50;44.20
61255;DHT22;47128;47.530;8.584;2022-08-01T15:58:31;33.40;44.10
61255;DHT22;47128;47.530;8.584;2022-08-01T16:00:57;33.20;44.10
61255;DHT22;47128;47.530;8.584;2022-08-01T16:03:22;33.00;44.30
61255;DHT22;47128;47.530;8.584;2022-08-01T16:05:48;33.00;44.80
61255;DHT22;47128;47.530;8.584;2022-08-01T16:08:16;33.00;44.80
61255;DHT22;47128;47.530;8.584;2022-08-01T16:10:42;33.00;44.40
61255;DHT22;47128;47.530;8.584;2022-08-01T16:13:08;33.00;44.60